Time;durP1;ratioP1;P1;durP2;ratioP2;P2;SDS_P1;SDS_P2;PMS_P1;PMS_P2;Temp;Humidity;BMP_temperature;BMP_pressure;BME280_temperature;BME280_humidity;BME280_pressure;Samples;Min_cycle;Max_cycle;Signal;HPM_P1;HPM_P2
2022/04/03 00:02:13;;;;;;;3.85;2.80;;;;;;;2.87;61.26;99146.00;5013292;28;20030;-79
2022/04/03 00:04:38;;;;;;;4.47;2.38;;;;;;;2.84;61.39;99146.38;5013144;28;20470;-79
2022/04/03 00:07:04;;;;;;;3.10;2.67;;;;;;;2.73;61.15;99141.66;5001608;28;20042;-79
2022/04/03 00:09:29;;;;;;;3.95;2.60;;;;;;;2.78;61.60;99137.41;4992686;28;20122;-80
2022/04/03 00:11:55;;;;;;;3.13;2.58;;;;;;;2.78;61.52;99147.13;4994649;28;20034;-79
2022/04/03 00:14:20;;;;;;;3.45;2.33;;;;;;;2.64;61.52;99143.59;5007843;28;20037;-79
2022/04/03 00:16:46;;;;;;;3.72;2.55;;;;;;;2.73;61.08;99145.06;5014385;28;20034;-80
2022/04/03 00:19:11;;;;;;;4.57;3.08;;;;;;;2.77;60.56;99146.34;5012299;28;20034;-79
2022/04/03 00:21:36;;;;;;;3.13;2.25;;;;;;;2.76;61.00;99141.25;5014265;28;20030;-80
2022/04/03 00:24:03;;;;;;;4.90;2.40;;;;;;;2.63;60.92;99141.97;5013767;28;20042;-80
2022/04/03 00:26:29;;;;;;;4.75;2.80;;;;;;;2.70;61.40;99147.28;5012642;28;20148;-79
2022/04/03 00:28:54;;;;;;;3.95;2.50;;;;;;;2.78;60.57;99145.31;5013375;28;20117;-79
2022/04/03 00:31:19;;;;;;;4.65;2.25;;;;;;;2.59;61.30;99145.97;5013964;28;20344;-80
2022/04/03 00:33:45;;;;;;;2.78;2.58;;;;;;;2.66;60.63;99135.50;5012853;28;20018;-80
2022/04/03 00:36:10;;;;;;;3.65;2.30;;;;;;;2.71;60.42;99144.44;4980085;28;20041;-80
2022/04/03 00:38:36;;;;;;;1.95;1.77;;;;;;;2.64;61.02;99150.69;4995593;28;20030;-79
2022/04/03 00:41:02;;;;;;;4.40;2.45;;;;;;;2.59;60.65;99143.34;5012483;28;20107;-79
2022/04/03 00:43:28;;;;;;;4.50;2.45;;;;;;;2.48;60.88;99145.66;5012562;28;20030;-79
2022/04/03 00:45:54;;;;;;;4.68;2.50;;;;;;;2.63;60.32;99151.69;5012408;28;20033;-79
2022/04/03 00:48:19;;;;;;;2.65;2.10;;;;;;;2.47;60.74;99158.03;5011765;28;20120;-79
2022/04/03 00:50:45;;;;;;;2.28;1.98;;;;;;;2.46;60.91;99156.41;5026169;28;20079;-80
2022/04/03 00:53:11;;;;;;;4.13;2.67;;;;;;;2.49;60.87;99156.00;5011639;28;20101;-79
2022/04/03 00:55:40;;;;;;;3.58;2.60;;;;;;;2.40;61.09;99159.81;5012498;28;20045;-80
2022/04/03 00:58:06;;;;;;;3.85;2.25;;;;;;;2.44;60.49;99157.59;4995514;28;20018;-80
2022/04/03 01:00:31;;;;;;;2.25;2.05;;;;;;;2.37;60.59;99154.91;4996249;28;20032;-79
2022/04/03 01:02:57;;;;;;;5.90;2.28;;;;;;;2.38;60.70;99156.50;5012163;28;20034;-80
2022/04/03 01:05:23;;;;;;;4.95;2.55;;;;;;;2.46;60.57;99160.84;5010029;28;20088;-80
2022/04/03 01:07:48;;;;;;;3.47;2.20;;;;;;;2.48;60.28;99154.41;5011199;28;20105;-80
2022/04/03 01:10:14;;;;;;;3.75;2.58;;;;;;;2.45;60.70;99153.94;5013346;28;20033;-79
2022/04/03 01:12:40;;;;;;;3.63;2.35;;;;;;;2.41;60.48;99147.44;5011959;28;20092;-79
2022/04/03 01:15:07;;;;;;;3.30;2.35;;;;;;;2.24;60.37;99154.78;5013278;28;20434;-80
2022/04/03 01:17:32;;;;;;;3.63;2.60;;;;;;;2.33;61.00;99160.72;4994985;28;20065;-79
2022/04/03 01:19:57;;;;;;;3.90;2.47;;;;;;;2.30;60.54;99156.66;5012348;28;20061;-80
2022/04/03 01:22:23;;;;;;;5.18;2.60;;;;;;;2.39;60.58;99168.69;4995471;28;20076;-79
2022/04/03 01:24:55;;;;;;;3.10;2.80;;;;;;;2.21;60.50;99157.78;5013097;28;20053;-79
2022/04/03 01:27:21;;;;;;;2.58;2.20;;;;;;;2.25;60.73;99153.75;5011814;28;20030;-79
2022/04/03 01:29:48;;;;;;;3.35;2.30;;;;;;;2.24;60.46;99165.31;5011604;28;20085;-80
2022/04/03 01:32:13;;;;;;;2.85;2.45;;;;;;;2.23;60.40;99159.22;5011523;28;20025;-80
2022/04/03 01:34:38;;;;;;;6.00;2.65;;;;;;;2.20;60.40;99159.63;5012669;28;20425;-80
2022/04/03 01:37:04;;;;;;;3.28;2.20;;;;;;;2.09;60.84;99162.72;4994575;28;20168;-79
2022/04/03 01:39:30;;;;;;;2.88;2.60;;;;;;;2.11;60.57;99152.00;4995261;28;20026;-79
2022/04/03 01:41:55;;;;;;;5.65;2.78;;;;;;;2.23;60.16;99167.13;5012497;28;20030;-79
2022/04/03 01:44:21;;;;;;;5.22;2.40;;;;;;;2.13;60.36;99161.34;5012709;28;20389;-80
2022/04/03 01:46:46;;;;;;;2.85;2.53;;;;;;;2.12;60.01;99158.88;4995059;28;20061;-80
2022/04/03 01:49:12;;;;;;;3.28;2.05;;;;;;;2.13;60.34;99153.47;5011998;28;20370;-79
2022/04/03 01:51:37;;;;;;;4.43;2.78;;;;;;;2.02;60.54;99153.13;5027395;28;20091;-79
2022/04/03 01:54:03;;;;;;;3.90;2.88;;;;;;;2.17;59.93;99153.88;5012319;28;20409;-79
2022/04/03 01:56:29;;;;;;;4.72;2.63;;;;;;;2.07;60.49;99151.59;5010915;28;20121;-79
2022/04/03 01:58:55;;;;;;;3.05;2.03;;;;;;;2.11;59.68;99139.66;5011699;28;20112;-79
2022/04/03 02:01:20;;;;;;;3.00;2.25;;;;;;;2.09;60.36;99148.75;5011081;28;20396;-79
2022/04/03 02:03:49;;;;;;;3.30;2.05;;;;;;;2.12;60.23;99149.19;5010844;28;20025;-79
2022/04/03 02:06:15;;;;;;;2.53;2.33;;;;;;;2.05;60.45;99145.66;5010954;28;20037;-80
2022/04/03 02:08:41;;;;;;;2.95;2.40;;;;;;;1.99;59.91;99137.69;5010102;28;20120;-80
2022/04/03 02:11:06;;;;;;;4.80;2.40;;;;;;;2.02;59.78;99148.69;5010603;28;20129;-80
2022/04/03 02:13:32;;;;;;;4.40;2.60;;;;;;;2.08;59.61;99147.09;5010776;28;20206;-80
2022/04/03 02:15:57;;;;;;;3.13;2.47;;;;;;;2.02;59.78;99151.31;5010660;28;20026;-80
2022/04/03 02:18:23;;;;;;;2.83;2.40;;;;;;;2.02;59.80;99153.13;5010039;28;20096;-79
2022/04/03 02:20:48;;;;;;;3.30;2.70;;;;;;;1.94;60.24;99155.88;5010317;28;20493;-80
2022/04/03 02:23:14;;;;;;;2.55;2.35;;;;;;;2.01;59.86;99147.03;5001308;28;20505;-80
2022/04/03 02:25:39;;;;;;;2.78;2.20;;;;;;;1.87;59.87;99144.47;5006537;28;20026;-80
2022/04/03 02:28:04;;;;;;;4.40;2.90;;;;;;;1.85;59.91;99151.72;4990071;28;20026;-80
2022/04/03 02:30:30;;;;;;;4.30;2.83;;;;;;;1.77;60.00;99151.84;5007262;28;20570;-80
2022/04/03 02:32:56;;;;;;;3.17;2.35;;;;;;;1.91;60.25;99156.25;4998957;28;20109;-80
2022/04/03 02:35:22;;;;;;;3.92;2.58;;;;;;;1.75;59.92;99156.47;5010461;28;20061;-80
2022/04/03 02:37:51;;;;;;;5.45;2.50;;;;;;;1.74;60.31;99154.81;4993430;28;20040;-80
2022/04/03 02:40:17;;;;;;;4.10;2.40;;;;;;;1.71;60.56;99156.00;5011518;28;20027;-80
2022/04/03 02:42:43;;;;;;;3.38;2.47;;;;;;;1.82;60.25;99159.97;5010590;28;20445;-80
2022/04/03 02:45:10;;;;;;;3.83;2.70;;;;;;;1.68;60.52;99160.84;5010246;28;20033;-80
2022/04/03 02:47:36;;;;;;;2.65;2.03;;;;;;;1.83;59.93;99159.81;5009461;28;20776;-79
2022/04/03 02:50:04;;;;;;;4.15;2.33;;;;;;;1.70;60.31;99158.84;5011311;28;20025;-80
2022/04/03 02:52:29;;;;;;;3.33;2.58;;;;;;;1.72;59.73;99160.28;4993316;28;20040;-79
2022/04/03 02:54:55;;;;;;;4.78;2.55;;;;;;;1.75;59.79;99149.38;5010240;28;20030;-80
2022/04/03 02:57:20;;;;;;;5.90;2.58;;;;;;;1.74;59.74;99155.66;5009647;28;20522;-79
2022/04/03 02:59:46;;;;;;;3.42;2.10;;;;;;;1.76;59.41;99147.56;5009214;28;20030;-80
2022/04/03 03:02:12;;;;;;;2.53;2.10;;;;;;;1.62;60.49;99151.06;5009520;28;20057;-80
2022/04/03 03:04:38;;;;;;;4.03;2.15;;;;;;;1.62;60.24;99162.38;5011497;28;20032;-80
2022/04/03 03:07:08;;;;;;;3.65;2.63;;;;;;;1.57;59.67;99161.31;5009529;28;20084;-80
2022/04/03 03:09:34;;;;;;;2.60;2.33;;;;;;;1.57;59.98;99148.16;5011351;28;20076;-80
2022/04/03 03:11:59;;;;;;;4.05;2.40;;;;;;;1.66;59.45;99157.56;5011300;28;20436;-80
2022/04/03 03:14:25;;;;;;;2.83;2.38;;;;;;;1.53;59.81;99155.56;5010083;28;20034;-80
2022/04/03 03:16:50;;;;;;;4.65;2.90;;;;;;;1.57;59.82;99148.16;5011298;28;20057;-80
2022/04/03 03:19:16;;;;;;;5.28;2.63;;;;;;;1.47;59.81;99159.75;4993501;28;20025;-80
2022/04/03 03:21:42;;;;;;;3.40;2.53;;;;;;;1.53;60.41;99159.03;4989552;28;20030;-80
2022/04/03 03:24:09;;;;;;;2.63;2.35;;;;;;;1.49;59.63;99154.31;4991436;28;20049;-80
2022/04/03 03:26:35;;;;;;;4.38;2.70;;;;;;;1.56;59.59;99163.09;4993715;28;20057;-80
2022/04/03 03:29:01;;;;;;;2.75;2.20;;;;;;;1.43;59.93;99163.75;5010313;28;20034;-79
2022/04/03 03:31:26;;;;;;;3.95;2.40;;;;;;;1.38;59.89;99155.59;5010724;28;20519;-80
2022/04/03 03:33:51;;;;;;;6.05;2.30;;;;;;;1.48;59.44;99163.22;5009838;28;20034;-80
2022/04/03 03:36:16;;;;;;;2.92;2.05;;;;;;;1.49;60.15;99170.91;5009578;28;20026;-80
2022/04/03 03:38:42;;;;;;;3.60;2.30;;;;;;;1.53;59.85;99161.66;5009195;28;20065;-80
2022/04/03 03:41:09;;;;;;;5.07;2.78;;;;;;;1.50;59.85;99164.66;5011116;28;20437;-80
2022/04/03 03:43:35;;;;;;;3.53;2.03;;;;;;;1.42;59.68;99175.25;5011254;28;20076;-80
2022/04/03 03:46:00;;;;;;;3.00;2.22;;;;;;;1.43;59.77;99166.38;5009421;28;20535;-80
2022/04/03 03:48:25;;;;;;;4.57;2.63;;;;;;;1.25;60.18;99163.31;5025332;28;20421;-80
2022/04/03 03:50:51;;;;;;;4.28;2.88;;;;;;;1.30;59.81;99168.03;5009686;28;20029;-80
2022/04/03 03:53:17;;;;;;;3.47;2.72;;;;;;;1.33;59.71;99168.47;5025176;28;20168;-80
2022/04/03 03:55:43;;;;;;;4.55;2.15;;;;;;;1.45;60.00;99174.09;5009821;28;20101;-80
2022/04/03 03:58:08;;;;;;;3.17;2.42;;;;;;;1.31;59.98;99164.41;5010555;28;20026;-80
2022/04/03 04:00:34;;;;;;;4.00;2.55;;;;;;;1.34;59.85;99170.09;4993209;28;20048;-80
2022/04/03 04:02:59;;;;;;;2.33;2.15;;;;;;;1.36;59.48;99165.47;5025875;28;20033;-80
2022/04/03 04:05:25;;;;;;;4.05;2.08;;;;;;;1.14;60.12;99178.69;4993375;28;20037;-80
2022/04/03 04:07:50;;;;;;;5.70;2.35;;;;;;;1.27;59.87;99166.56;4992805;28;20030;-80
2022/04/03 04:10:16;;;;;;;2.60;2.20;;;;;;;1.20;60.20;99186.69;4992964;28;20030;-80
2022/04/03 04:12:43;;;;;;;4.95;2.30;;;;;;;1.35;59.48;99181.44;5008808;28;20041;-80
2022/04/03 04:15:09;;;;;;;2.25;2.05;;;;;;;1.22;59.66;99178.63;5025854;28;20482;-80
2022/04/03 04:17:39;;;;;;;2.85;2.22;;;;;;;1.19;60.19;99187.69;5008777;28;20125;-80
2022/04/03 04:20:07;;;;;;;2.78;2.30;;;;;;;1.05;60.42;99185.84;4994160;28;20490;-80
2022/04/03 04:22:32;;;;;;;3.10;2.63;;;;;;;1.04;60.61;99192.13;5009676;28;20370;-80
2022/04/03 04:24:57;;;;;;;4.38;2.50;;;;;;;1.30;60.18;99194.31;4993539;28;20088;-80
2022/04/03 04:27:23;;;;;;;2.60;2.35;;;;;;;1.07;59.83;99190.94;5010077;28;20061;-80
2022/04/03 04:29:48;;;;;;;3.92;2.58;;;;;;;1.29;60.16;99200.59;5006673;28;20474;-80
2022/04/03 04:32:13;;;;;;;2.40;2.13;;;;;;;1.26;59.89;99193.88;5013903;28;20030;-80
2022/04/03 04:34:39;;;;;;;2.95;2.45;;;;;;;1.20;59.88;99194.56;5013064;28;20394;-80
2022/04/03 04:37:05;;;;;;;3.33;2.45;;;;;;;1.20;60.31;99196.41;5012089;28;20032;-79
2022/04/03 04:39:31;;;;;;;4.38;2.50;;;;;;;1.16;60.58;99201.19;4996415;28;20076;-80
2022/04/03 04:41:57;;;;;;;3.20;2.42;;;;;;;1.12;60.75;99196.47;4996741;28;20033;-80
2022/04/03 04:44:22;;;;;;;2.90;2.33;;;;;;;1.18;60.38;99198.41;4996025;28;20517;-80
2022/04/03 04:46:47;;;;;;;5.25;3.13;;;;;;;1.10;61.10;99187.94;5012766;28;20037;-80
2022/04/03 04:49:14;;;;;;;4.50;2.35;;;;;;;1.13;60.56;99208.63;4995911;28;20033;-80
2022/04/03 04:51:39;;;;;;;2.90;2.45;;;;;;;1.15;61.30;99209.25;4980636;28;20034;-80
2022/04/03 04:54:05;;;;;;;3.33;2.45;;;;;;;1.12;61.32;99207.81;4979915;28;20049;-80
2022/04/03 04:56:30;;;;;;;3.08;2.47;;;;;;;1.31;60.92;99212.53;5012294;28;20044;-80
2022/04/03 04:58:56;;;;;;;2.63;2.42;;;;;;;1.13;61.34;99213.88;5012638;28;20544;-80
2022/04/03 05:01:21;;;;;;;4.80;3.33;;;;;;;1.15;61.30;99217.97;5012327;28;20417;-80
2022/04/03 05:03:46;;;;;;;2.65;2.05;;;;;;;1.13;61.31;99212.06;5012373;28;20401;-80
2022/04/03 05:06:15;;;;;;;5.50;2.80;;;;;;;1.13;62.12;99212.06;5012090;28;20042;-80
2022/04/03 05:08:41;;;;;;;2.55;2.28;;;;;;;1.20;61.97;99214.81;5012659;28;20044;-80
2022/04/03 05:11:06;;;;;;;2.80;2.28;;;;;;;1.19;61.73;99221.03;5013115;28;20112;-80
2022/04/03 05:13:32;;;;;;;5.43;2.50;;;;;;;1.24;61.17;99222.16;5028730;28;20040;-80
2022/04/03 05:15:58;;;;;;;5.55;2.58;;;;;;;1.30;61.23;99225.88;4995840;28;20371;-80
2022/04/03 05:18:23;;;;;;;3.22;2.65;;;;;;;1.20;61.35;99228.75;4978866;28;20034;-80
2022/04/03 05:20:49;;;;;;;4.60;3.03;;;;;;;1.18;61.69;99228.09;5011909;28;20037;-80
2022/04/03 05:23:15;;;;;;;4.75;2.42;;;;;;;1.58;60.95;99229.50;5013009;28;20026;-80
2022/04/03 05:25:41;;;;;;;4.45;2.85;;;;;;;1.29;61.62;99229.50;5011990;28;20041;-80
2022/04/03 05:28:08;;;;;;;4.70;2.50;;;;;;;1.18;62.01;99222.84;4978858;28;20030;-80
2022/04/03 05:30:34;;;;;;;4.28;2.70;;;;;;;1.27;61.56;99236.72;5011459;28;20485;-80
2022/04/03 05:32:59;;;;;;;2.60;2.10;;;;;;;1.27;61.85;99231.47;5012816;28;20029;-80
2022/04/03 05:35:25;;;;;;;3.28;2.70;;;;;;;1.14;62.32;99237.34;5011611;28;20429;-80
2022/04/03 05:37:50;;;;;;;2.85;2.28;;;;;;;1.23;61.45;99232.81;5010913;28;20115;-80
2022/04/03 05:40:15;;;;;;;5.00;2.50;;;;;;;1.17;61.66;99229.13;5011854;28;20049;-80
2022/04/03 05:42:41;;;;;;;6.40;2.47;;;;;;;1.24;61.50;99239.72;4995296;28;20071;-80
2022/04/03 05:45:08;;;;;;;2.72;2.30;;;;;;;1.35;61.66;99245.38;5012924;28;20084;-80
2022/04/03 05:47:34;;;;;;;4.10;2.67;;;;;;;1.34;61.61;99243.72;4994508;28;20044;-80
2022/04/03 05:49:59;;;;;;;5.20;2.90;;;;;;;1.17;61.81;99244.88;5011607;28;20029;-80
2022/04/03 05:52:24;;;;;;;3.22;2.60;;;;;;;1.24;61.64;99235.31;4993814;28;20026;-80
2022/04/03 05:54:50;;;;;;;5.07;3.20;;;;;;;1.48;61.19;99250.00;4995208;28;20042;-80
2022/04/03 05:57:15;;;;;;;4.03;2.83;;;;;;;1.27;61.27;99242.81;5011209;28;20033;-80
2022/04/03 05:59:41;;;;;;;4.25;3.25;;;;;;;1.29;61.49;99242.66;4995289;28;20057;-80
2022/04/03 06:02:07;;;;;;;3.60;3.20;;;;;;;1.29;61.81;99255.78;5011694;28;20025;-80
2022/04/03 06:04:33;;;;;;;5.18;2.53;;;;;;;1.22;61.75;99254.88;5012865;28;20041;-80
2022/04/03 06:06:58;;;;;;;6.82;3.25;;;;;;;1.26;61.83;99261.41;5012416;28;20029;-80
2022/04/03 06:09:23;;;;;;;4.43;3.22;;;;;;;1.38;61.57;99255.53;5011503;28;20042;-80
2022/04/03 06:11:49;;;;;;;5.95;3.40;;;;;;;1.38;61.83;99255.53;5013168;28;20541;-80
2022/04/03 06:14:14;;;;;;;7.20;4.97;;;;;;;1.44;61.94;99260.06;4994959;28;20038;-80
2022/04/03 06:16:39;;;;;;;5.57;3.65;;;;;;;1.49;62.37;99255.06;5011209;28;20477;-80
2022/04/03 06:19:05;;;;;;;5.03;3.85;;;;;;;1.39;62.36;99256.34;4977956;28;20401;-80
2022/04/03 06:21:31;;;;;;;5.55;3.72;;;;;;;1.55;61.81;99261.44;5012113;28;20108;-80
2022/04/03 06:23:56;;;;;;;8.65;4.07;;;;;;;1.62;61.74;99262.34;5011260;28;20033;-80
2022/04/03 06:26:22;;;;;;;5.50;4.15;;;;;;;1.52;62.82;99259.16;4994010;28;20042;-80
2022/04/03 06:28:47;;;;;;;4.43;3.42;;;;;;;1.64;62.53;99268.22;5026806;28;20030;-80
2022/04/03 06:31:12;;;;;;;6.55;3.65;;;;;;;1.71;62.81;99258.63;4994371;28;20034;-79
2022/04/03 06:33:38;;;;;;;4.22;3.83;;;;;;;1.82;62.57;99257.34;4994623;28;20026;-80
2022/04/03 06:36:03;;;;;;;5.35;3.53;;;;;;;1.91;62.60;99254.44;5010846;28;20038;-80
2022/04/03 06:38:29;;;;;;;5.85;3.75;;;;;;;1.91;62.55;99261.50;4994358;28;20034;-80
2022/04/03 06:40:57;;;;;;;5.22;2.90;;;;;;;1.96;62.34;99257.34;5027200;28;20032;-80
2022/04/03 06:43:25;;;;;;;3.30;2.70;;;;;;;2.00;62.77;99265.69;4994703;28;20030;-79
2022/04/03 06:45:51;;;;;;;4.40;3.03;;;;;;;2.03;63.03;99262.69;5012665;28;20277;-79
2022/04/03 06:48:17;;;;;;;5.65;3.45;;;;;;;2.15;62.43;99261.22;4993996;28;20386;-79
2022/04/03 06:50:42;;;;;;;7.95;3.45;;;;;;;2.10;62.90;99255.66;5012066;28;20371;-80
2022/04/03 06:53:08;;;;;;;6.60;3.03;;;;;;;2.27;62.22;99265.00;5010122;28;20057;-79
2022/04/03 06:55:34;;;;;;;4.53;3.25;;;;;;;2.23;62.95;99263.72;5012054;28;20087;-79
2022/04/03 06:58:03;;;;;;;3.97;3.58;;;;;;;2.25;62.72;99254.63;5009682;28;20037;-79
2022/04/03 07:00:28;;;;;;;4.22;3.35;;;;;;;2.33;62.55;99255.53;5011897;28;20037;-79
2022/04/03 07:02:54;;;;;;;3.70;3.25;;;;;;;2.28;62.59;99253.47;5010675;28;20025;-79
2022/04/03 07:05:20;;;;;;;5.97;3.67;;;;;;;2.34;62.31;99263.25;5012038;28;20040;-80
2022/04/03 07:07:45;;;;;;;6.10;3.20;;;;;;;2.32;62.95;99253.88;5010395;28;20038;-80
2022/04/03 07:10:11;;;;;;;6.07;3.30;;;;;;;2.44;62.70;99270.84;4994071;28;20036;-80
2022/04/03 07:12:37;;;;;;;5.53;3.60;;;;;;;2.43;62.08;99262.13;5010467;28;20042;-80
2022/04/03 07:15:04;;;;;;;4.50;3.17;;;;;;;2.51;62.60;99266.47;5010502;28;20037;-80
2022/04/03 07:17:29;;;;;;;6.60;3.65;;;;;;;2.58;62.17;99270.00;5009769;28;20129;-80
2022/04/03 07:19:55;;;;;;;5.13;3.53;;;;;;;2.62;62.25;99266.78;5009962;28;20116;-80
2022/04/03 07:22:20;;;;;;;3.90;3.30;;;;;;;2.60;62.73;99266.16;5011624;28;20466;-80
2022/04/03 07:24:46;;;;;;;3.70;3.25;;;;;;;2.64;62.22;99263.97;5010513;28;20415;-80
2022/04/03 07:27:11;;;;;;;5.15;3.50;;;;;;;2.71;62.05;99262.25;5009540;28;20042;-80
2022/04/03 07:29:36;;;;;;;4.82;3.40;;;;;;;2.72;61.74;99269.13;5011556;28;20058;-80
2022/04/03 07:32:02;;;;;;;5.32;3.85;;;;;;;2.72;61.77;99267.31;4993529;28;20053;-80
2022/04/03 07:34:28;;;;;;;4.10;3.05;;;;;;;2.80;61.88;99261.91;5010941;28;20026;-80
2022/04/03 07:36:53;;;;;;;5.95;3.70;;;;;;;2.77;61.91;99264.13;5009687;28;20036;-80
2022/04/03 07:39:18;;;;;;;6.53;3.78;;;;;;;2.81;61.97;99271.47;4993596;28;20138;-80
2022/04/03 07:41:44;;;;;;;3.80;2.97;;;;;;;2.73;62.25;99265.50;5010489;28;20033;-80
2022/04/03 07:44:10;;;;;;;5.80;3.63;;;;;;;2.82;62.05;99278.34;5010005;28;20057;-80
2022/04/03 07:46:37;;;;;;;5.72;3.80;;;;;;;2.88;61.87;99277.59;5010110;28;20037;-80
2022/04/03 07:49:03;;;;;;;4.47;3.42;;;;;;;2.88;61.31;99280.22;5009284;28;20065;-80
2022/04/03 07:51:28;;;;;;;5.25;3.30;;;;;;;2.91;61.86;99286.94;4993413;28;20478;-80
2022/04/03 07:53:55;;;;;;;3.45;3.15;;;;;;;3.03;61.21;99286.28;5008964;28;20034;-80
2022/04/03 07:56:20;;;;;;;4.10;3.70;;;;;;;3.00;60.91;99291.09;5011516;28;20137;-81
2022/04/03 07:58:45;;;;;;;4.13;3.03;;;;;;;3.00;61.81;99281.38;4992927;28;20125;-80
2022/04/03 08:01:11;;;;;;;4.30;3.05;;;;;;;3.05;61.73;99288.72;4977526;28;20018;-80
2022/04/03 08:03:36;;;;;;;3.03;2.72;;;;;;;3.12;61.17;99283.50;5010477;28;20021;-80
2022/04/03 08:06:02;;;;;;;3.15;2.53;;;;;;;3.16;60.90;99285.56;4997649;28;20030;-80
2022/04/03 08:08:27;;;;;;;7.35;4.07;;;;;;;3.15;60.34;99281.28;4996575;28;20445;-80
2022/04/03 08:10:52;;;;;;;5.55;3.05;;;;;;;3.19;60.21;99285.16;5013581;28;20397;-80
2022/04/03 08:13:20;;;;;;;3.35;2.80;;;;;;;3.16;60.35;99277.66;4981348;28;20034;-81
2022/04/03 08:15:45;;;;;;;4.68;2.58;;;;;;;3.24;60.07;99282.78;5014602;28;20065;-80
2022/04/03 08:18:11;;;;;;;4.88;3.05;;;;;;;3.29;59.90;99277.75;4981319;28;20054;-80
2022/04/03 08:20:36;;;;;;;4.18;2.50;;;;;;;3.33;59.46;99280.81;5013313;28;20389;-80
2022/04/03 08:23:03;;;;;;;5.30;2.65;;;;;;;3.31;58.79;99280.19;4996911;28;20029;-81
2022/04/03 08:25:33;;;;;;;4.57;2.85;;;;;;;3.36;59.22;99281.25;5029434;28;20034;-80
2022/04/03 08:28:00;;;;;;;4.03;2.50;;;;;;;3.39;59.04;99277.41;5014180;28;20040;-80
2022/04/03 08:30:28;;;;;;;3.10;2.30;;;;;;;3.42;58.77;99277.03;5013165;28;20544;-80
2022/04/03 08:32:54;;;;;;;4.20;2.67;;;;;;;3.41;58.39;99278.84;4997740;28;20037;-80
2022/04/03 08:35:21;;;;;;;3.92;3.22;;;;;;;3.47;58.49;99285.97;4997238;28;20037;-80
2022/04/03 08:37:48;;;;;;;5.35;2.25;;;;;;;3.50;58.51;99274.25;5014010;28;20053;-80
2022/04/03 08:40:14;;;;;;;3.38;2.30;;;;;;;3.56;58.36;99273.50;5029985;28;20072;-80
2022/04/03 08:42:40;;;;;;;3.05;2.50;;;;;;;3.59;58.45;99286.28;5013436;28;20065;-80
2022/04/03 08:45:11;;;;;;;2.92;2.47;;;;;;;3.67;58.12;99271.09;5012994;28;20396;-80
2022/04/03 08:47:43;;;;;;;3.33;2.78;;;;;;;3.70;58.22;99281.28;5013467;28;20038;-79
2022/04/03 08:50:08;;;;;;;4.43;2.65;;;;;;;3.73;57.87;99269.53;5013083;28;20032;-79
2022/04/03 08:52:36;;;;;;;3.53;2.88;;;;;;;3.76;58.09;99269.94;5013017;28;20030;-80
2022/04/03 08:55:04;;;;;;;3.67;2.53;;;;;;;3.80;58.06;99271.19;5013284;28;20026;-80
2022/04/03 08:57:29;;;;;;;4.03;2.63;;;;;;;3.82;57.91;99276.28;5011939;28;20323;-80
2022/04/03 08:59:55;;;;;;;4.25;3.58;;;;;;;3.86;57.86;99268.78;5012186;28;20033;-80
2022/04/03 09:02:21;;;;;;;5.95;2.85;;;;;;;3.86;58.17;99288.09;5014319;28;20113;-80
2022/04/03 09:04:47;;;;;;;3.40;2.83;;;;;;;3.95;57.75;99278.19;5012511;28;20112;-80
2022/04/03 09:07:18;;;;;;;3.15;2.85;;;;;;;3.99;57.55;99282.88;5012976;28;20038;-80
2022/04/03 09:09:44;;;;;;;2.95;2.65;;;;;;;3.97;57.34;99271.69;5012438;28;20481;-80
2022/04/03 09:12:18;;;;;;;3.45;2.67;;;;;;;4.04;57.05;99277.00;4995605;28;20125;-80
2022/04/03 09:14:54;;;;;;;3.17;2.83;;;;;;;4.09;57.57;99271.94;5011800;28;20373;-80
2022/04/03 09:17:42;;;;;;;3.90;2.63;;;;;;;4.12;56.91;99277.66;5011261;28;20041;-79
2022/04/03 09:20:09;;;;;;;3.67;2.67;;;;;;;4.19;56.43;99286.44;5013122;28;20034;-80
2022/04/03 09:22:37;;;;;;;4.38;3.10;;;;;;;4.20;56.25;99274.84;5011381;28;20032;-80
2022/04/03 09:25:09;;;;;;;6.63;3.75;;;;;;;4.21;57.46;99283.59;5012862;28;20026;-80
2022/04/03 09:27:35;;;;;;;3.92;2.70;;;;;;;4.30;56.85;99283.19;5010506;28;20072;-80
2022/04/03 09:30:04;;;;;;;3.42;3.03;;;;;;;4.28;57.12;99268.59;5012638;28;20037;-80
2022/04/03 09:32:29;;;;;;;7.47;3.42;;;;;;;4.41;56.68;99277.34;5012720;28;20026;-80
2022/04/03 09:34:57;;;;;;;3.42;2.63;;;;;;;4.52;56.30;99278.63;4995314;28;20540;-80
2022/04/03 09:37:23;;;;;;;3.78;3.08;;;;;;;4.56;55.85;99271.91;5012118;28;20021;-80
2022/04/03 09:39:48;;;;;;;4.75;2.95;;;;;;;4.66;55.83;99277.63;4995485;28;20068;-80
2022/04/03 09:42:15;;;;;;;5.05;3.10;;;;;;;4.64;55.40;99260.34;5012514;28;20245;-80
2022/04/03 09:44:44;;;;;;;3.80;2.80;;;;;;;4.71;55.95;99261.16;4979431;28;20188;-80
2022/04/03 09:47:13;;;;;;;4.95;2.90;;;;;;;4.73;55.73;99270.53;5010628;28;20025;-80
2022/04/03 09:49:39;;;;;;;3.97;2.83;;;;;;;4.83;55.74;99268.28;5012364;28;20236;-80
2022/04/03 09:52:05;;;;;;;4.70;2.92;;;;;;;4.83;55.98;99260.38;5010861;28;20037;-80
2022/04/03 09:54:31;;;;;;;3.28;2.88;;;;;;;4.91;55.84;99262.00;5012144;28;20021;-80
2022/04/03 09:57:20;;;;;;;3.10;2.78;;;;;;;5.01;55.57;99265.88;5010560;28;20030;-80
2022/04/03 09:59:53;;;;;;;3.75;3.13;;;;;;;5.06;55.23;99262.63;5012506;28;20040;-80
2022/04/03 10:02:20;;;;;;;3.63;3.20;;;;;;;5.05;55.13;99268.94;5027786;28;20053;-80
2022/04/03 10:04:46;;;;;;;5.93;2.63;;;;;;;5.16;55.42;99273.63;5027277;28;20025;-80
2022/04/03 10:07:15;;;;;;;4.47;3.03;;;;;;;5.16;55.63;99255.09;5011717;28;20474;-79
2022/04/03 10:09:48;;;;;;;3.67;2.97;;;;;;;5.29;54.93;99257.75;5027161;28;20052;-80
2022/04/03 10:12:21;;;;;;;5.07;3.20;;;;;;;5.36;54.67;99261.22;5013633;28;20033;-80
2022/04/03 10:14:51;;;;;;;4.97;3.33;;;;;;;5.49;54.61;99255.06;5012004;28;20030;-80
2022/04/03 10:17:18;;;;;;;3.72;2.67;;;;;;;5.58;54.45;99248.56;5010101;28;20117;-79
2022/04/03 10:19:44;;;;;;;3.42;2.70;;;;;;;5.66;54.27;99248.31;4994253;28;20099;-80
2022/04/03 10:22:27;;;;;;;4.15;3.20;;;;;;;5.63;53.76;99243.47;5033628;28;20022;-80
2022/04/03 10:24:56;;;;;;;4.78;3.05;;;;;;;5.79;54.01;99243.00;5016820;28;20251;-81
2022/04/03 10:27:28;;;;;;;4.47;3.00;;;;;;;5.89;54.19;99241.59;5012322;28;20512;-80
2022/04/03 10:29:57;;;;;;;2.80;2.60;;;;;;;5.93;52.84;99240.16;5017898;28;20064;-80
2022/04/03 10:32:25;;;;;;;3.85;3.33;;;;;;;5.89;52.70;99225.69;5018215;28;20022;-81
2022/04/03 10:34:54;;;;;;;5.60;3.78;;;;;;;6.17;51.60;99229.88;5000037;28;20040;-80
2022/04/03 10:37:22;;;;;;;3.92;3.53;;;;;;;6.07;52.80;99233.78;5010841;28;20113;-80
2022/04/03 10:39:51;;;;;;;5.50;3.70;;;;;;;6.14;53.43;99238.25;5025605;28;20088;-80
2022/04/03 10:42:24;;;;;;;3.65;3.03;;;;;;;6.19;52.99;99230.47;5010306;28;20297;-80
2022/04/03 10:45:11;;;;;;;5.15;4.00;;;;;;;6.23;52.79;99231.66;5011368;28;20037;-79
2022/04/03 10:47:41;;;;;;;4.70;3.45;;;;;;;6.23;51.56;99224.53;5011053;28;20025;-82
2022/04/03 10:50:11;;;;;;;7.50;3.55;;;;;;;6.32;51.79;99230.41;4994167;28;20029;-82
2022/04/03 10:52:42;;;;;;;7.75;3.75;;;;;;;6.25;51.94;99232.25;5011411;28;20072;-83
2022/04/03 10:55:19;;;;;;;4.88;3.72;;;;;;;6.32;51.49;99212.66;5010249;28;20137;-83
2022/04/03 10:57:47;;;;;;;5.07;3.25;;;;;;;6.29;52.24;99204.34;5011443;28;20025;-83
2022/04/03 11:00:12;;;;;;;6.00;4.03;;;;;;;6.33;52.79;99210.84;5010560;28;20485;-83
2022/04/03 11:02:39;;;;;;;6.25;4.00;;;;;;;6.41;51.32;99213.22;5010279;28;20021;-82
2022/04/03 11:05:22;;;;;;;4.35;3.75;;;;;;;6.47;51.80;99217.66;5010438;28;20076;-82
2022/04/03 11:07:52;;;;;;;4.35;3.78;;;;;;;6.51;52.08;99211.72;5009126;28;20040;-82
2022/04/03 11:10:54;;;;;;;6.78;3.85;;;;;;;6.68;51.80;99206.75;5026801;28;20033;-82
2022/04/03 11:13:28;;;;;;;4.10;3.70;;;;;;;6.73;51.59;99205.06;5011237;28;20041;-83
2022/04/03 11:15:55;;;;;;;6.18;4.45;;;;;;;6.81;51.36;99201.34;5010181;28;20030;-82
2022/04/03 11:18:28;;;;;;;4.53;3.65;;;;;;;6.97;51.19;99200.00;4993070;28;20033;-82
2022/04/03 11:21:27;;;;;;;6.95;3.70;;;;;;;6.98;50.85;99205.09;5026528;28;20036;-83
2022/04/03 11:23:55;;;;;;;5.57;4.30;;;;;;;7.17;51.54;99198.78;5009923;28;20091;-83
2022/04/03 11:26:22;;;;;;;5.63;3.60;;;;;;;7.32;50.71;99195.78;5010875;28;20030;-82
2022/04/03 11:28:48;;;;;;;4.72;3.40;;;;;;;7.39;50.46;99194.72;5025735;28;20119;-82
2022/04/03 11:31:14;;;;;;;6.50;4.60;;;;;;;7.47;49.80;99204.22;4993638;28;20487;-82
2022/04/03 11:33:40;;;;;;;5.60;3.70;;;;;;;7.48;50.39;99192.56;5011224;28;20032;-83
2022/04/03 11:36:08;;;;;;;5.38;3.90;;;;;;;7.41;49.95;99187.34;5010894;28;20113;-83
2022/04/03 11:38:40;;;;;;;6.82;3.65;;;;;;;7.43;50.49;99182.63;5010334;28;20044;-83
2022/04/03 11:41:09;;;;;;;4.72;3.65;;;;;;;7.53;50.01;99182.91;5013696;28;20026;-82